Time;durP1;ratioP1;P1;durP2;ratioP2;P2;SDS_P1;SDS_P2;PMS_P1;PMS_P2;Temp;Humidity;BMP_temperature;BMP_pressure;BME280_temperature;BME280_humidity;BME280_pressure;Samples;Min_cycle;Max_cycle;Signal;HPM_P1;HPM_P2
2021/12/07 00:01:15;;;;;;;9.88;7.55;;;;;;;;;;5046012;28;20442;-30
2021/12/07 00:03:40;;;;;;;10.52;7.60;;;;;;;;;;5062053;28;20115;-34
2021/12/07 00:06:07;;;;;;;9.80;7.18;;;;;;;;;;5064889;28;20032;-32
2021/12/07 00:08:32;;;;;;;9.05;6.30;;;;;;;;;;5063821;28;20104;-34
2021/12/07 00:10:58;;;;;;;9.35;6.50;;;;;;;;;;5064940;28;20093;-31
2021/12/07 00:13:28;;;;;;;9.35;6.28;;;;;;;;;;5065666;28;20032;-29
2021/12/07 00:15:54;;;;;;;9.68;6.65;;;;;;;;;;5063239;28;20537;-30
2021/12/07 00:18:19;;;;;;;8.43;6.13;;;;;;;;;;5065176;28;20036;-30
2021/12/07 00:20:45;;;;;;;8.95;6.50;;;;;;;;;;5064744;28;20036;-30
2021/12/07 00:23:10;;;;;;;8.75;6.43;;;;;;;;;;5065152;28;20028;-35
2021/12/07 00:25:36;;;;;;;8.05;6.00;;;;;;;;;;5064637;28;20032;-28
2021/12/07 00:28:02;;;;;;;7.45;6.00;;;;;;;;;;5072588;28;20048;-30
2021/12/07 00:30:31;;;;;;;8.10;5.82;;;;;;;;;;5084353;28;20553;-27
2021/12/07 00:33:11;;;;;;;7.88;5.78;;;;;;;;;;5085046;28;20077;-30
2021/12/07 00:35:37;;;;;;;8.38;5.97;;;;;;;;;;5084386;28;20024;-30
2021/12/07 00:38:15;;;;;;;6.30;4.90;;;;;;;;;;5084912;28;20645;-30
2021/12/07 00:40:41;;;;;;;7.15;5.18;;;;;;;;;;5084187;28;20582;-31
2021/12/07 00:43:07;;;;;;;7.00;4.75;;;;;;;;;;5084625;28;20016;-30
2021/12/07 00:45:34;;;;;;;6.63;4.93;;;;;;;;;;5084788;28;20085;-31
2021/12/07 00:47:59;;;;;;;6.25;4.90;;;;;;;;;;5084602;28;20031;-31
2021/12/07 00:50:26;;;;;;;6.43;4.63;;;;;;;;;;5084839;28;20398;-32
2021/12/07 00:52:51;;;;;;;6.28;4.50;;;;;;;;;;5085019;28;20552;-27
2021/12/07 00:55:19;;;;;;;7.47;5.15;;;;;;;;;;5084319;28;20039;-28
2021/12/07 00:57:45;;;;;;;6.88;5.00;;;;;;;;;;5084446;28;20024;-30
2021/12/07 01:00:12;;;;;;;5.93;4.57;;;;;;;;;;5084410;28;20035;-35
2021/12/07 01:02:38;;;;;;;6.68;4.20;;;;;;;;;;5075875;28;20037;-27
2021/12/07 01:05:11;;;;;;;6.30;4.38;;;;;;;;;;5064072;28;20430;-30
2021/12/07 01:08:12;;;;;;;5.28;4.13;;;;;;;;;;5064200;28;20105;-30
2021/12/07 01:26:52;;;;;;;4.30;3.40;;;;;;;;;;5083942;28;20517;-31
2021/12/07 01:29:20;;;;;;;4.28;2.88;;;;;;;;;;5083460;28;20071;-34
2021/12/07 01:51:29;;;;;;;3.90;2.92;;;;;;;;;;5041775;28;20354;-29
2021/12/07 01:57:48;;;;;;;3.60;2.78;;;;;;;;;;5065436;28;20046;-31
2021/12/07 02:01:30;;;;;;;3.33;2.45;;;;;;;;;;5067651;28;20125;-32
2021/12/07 02:03:55;;;;;;;3.78;2.65;;;;;;;;;;5064093;28;20676;-30
2021/12/07 02:06:20;;;;;;;4.07;3.00;;;;;;;;;;5063559;28;20036;-28
2021/12/07 02:08:46;;;;;;;3.63;2.40;;;;;;;;;;5063011;28;20028;-30
2021/12/07 02:11:12;;;;;;;4.45;2.47;;;;;;;;;;5062612;28;20050;-29
2021/12/07 02:16:03;;;;;;;4.05;2.70;;;;;;;;;;5062671;28;20059;-34
2021/12/07 02:18:28;;;;;;;3.17;2.40;;;;;;;;;;5063015;28;20016;-32
2021/12/07 02:20:54;;;;;;;2.65;1.90;;;;;;;;;;5062902;28;20033;-31
2021/12/07 02:23:19;;;;;;;3.17;2.13;;;;;;;;;;5062794;28;20029;-33
2021/12/07 02:25:45;;;;;;;2.80;2.00;;;;;;;;;;5044831;28;20035;-29
2021/12/07 02:28:14;;;;;;;3.22;2.42;;;;;;;;;;5063161;28;20595;-30
2021/12/07 02:30:40;;;;;;;3.58;2.15;;;;;;;;;;5063218;28;20032;-33
2021/12/07 02:33:06;;;;;;;2.92;1.95;;;;;;;;;;5062690;28;20090;-31
2021/12/07 02:35:31;;;;;;;4.28;1.92;;;;;;;;;;5061703;28;20032;-33
2021/12/07 02:37:58;;;;;;;3.80;2.03;;;;;;;;;;5062398;28;20027;-29
2021/12/07 02:40:23;;;;;;;2.40;1.95;;;;;;;;;;5062744;28;20558;-30
2021/12/07 02:42:49;;;;;;;2.67;1.63;;;;;;;;;;5062273;28;20043;-30
2021/12/07 02:45:18;;;;;;;3.13;1.80;;;;;;;;;;5063068;28;20036;-31
2021/12/07 02:47:45;;;;;;;2.53;1.88;;;;;;;;;;5063396;28;20024;-35
2021/12/07 02:50:10;;;;;;;2.30;1.65;;;;;;;;;;5062775;28;20545;-33
2021/12/07 02:52:36;;;;;;;2.17;1.63;;;;;;;;;;5062022;28;20035;-29
2021/12/07 02:55:02;;;;;;;3.60;2.13;;;;;;;;;;5062263;28;20046;-33
2021/12/07 02:57:30;;;;;;;2.15;1.60;;;;;;;;;;5061770;28;20497;-32
2021/12/07 03:00:02;;;;;;;2.47;1.67;;;;;;;;;;5065516;28;20387;-31
2021/12/07 03:02:30;;;;;;;2.08;1.60;;;;;;;;;;5066415;28;20032;-31
2021/12/07 03:05:16;;;;;;;1.90;1.60;;;;;;;;;;5066724;28;20039;-29
2021/12/07 03:27:00;;;;;;;1.42;1.05;;;;;;;;;;5065852;28;20595;-30
2021/12/07 03:29:26;;;;;;;1.83;1.33;;;;;;;;;;5065677;28;20041;-30
2021/12/07 03:31:51;;;;;;;1.92;1.33;;;;;;;;;;5065832;28;20482;-30
2021/12/07 03:34:17;;;;;;;1.75;1.10;;;;;;;;;;5066161;28;20040;-34
2021/12/07 03:36:42;;;;;;;1.30;0.98;;;;;;;;;;5066016;28;20024;-32
2021/12/07 03:39:08;;;;;;;2.65;1.50;;;;;;;;;;5065484;28;20506;-31
2021/12/07 03:41:33;;;;;;;2.20;1.40;;;;;;;;;;5065547;28;20025;-29
2021/12/07 03:43:59;;;;;;;3.08;1.58;;;;;;;;;;5065819;28;20029;-29
2021/12/07 03:46:25;;;;;;;1.65;1.33;;;;;;;;;;5066024;28;20032;-31
2021/12/07 03:48:51;;;;;;;2.13;1.40;;;;;;;;;;5066346;28;20028;-29
2021/12/07 03:51:17;;;;;;;1.92;1.40;;;;;;;;;;5065730;28;20043;-31
2021/12/07 03:53:42;;;;;;;2.70;1.65;;;;;;;;;;5065309;28;20550;-29
2021/12/07 03:56:08;;;;;;;1.65;1.17;;;;;;;;;;5065371;28;20024;-30
2021/12/07 03:58:34;;;;;;;1.52;1.10;;;;;;;;;;5065055;28;20117;-28
2021/12/07 04:00:59;;;;;;;1.63;1.02;;;;;;;;;;5065361;28;20029;-32
2021/12/07 04:03:25;;;;;;;1.55;1.20;;;;;;;;;;5065257;28;20032;-37
2021/12/07 04:05:55;;;;;;;1.55;1.30;;;;;;;;;;5065170;28;20024;-28
2021/12/07 04:08:25;;;;;;;1.83;1.20;;;;;;;;;;5065464;28;20111;-31
2021/12/07 04:10:50;;;;;;;2.05;1.27;;;;;;;;;;5064648;28;20028;-32
2021/12/07 04:13:16;;;;;;;1.63;1.02;;;;;;;;;;5065240;28;20032;-34
2021/12/07 04:15:42;;;;;;;2.10;1.40;;;;;;;;;;5065085;28;20888;-32
2021/12/07 04:18:07;;;;;;;1.95;1.00;;;;;;;;;;5065210;28;20025;-30
2021/12/07 04:20:33;;;;;;;1.77;1.08;;;;;;;;;;5064977;28;20111;-33
2021/12/07 04:22:58;;;;;;;1.58;1.00;;;;;;;;;;5065116;28;20029;-32
2021/12/07 04:25:24;;;;;;;1.77;1.38;;;;;;;;;;5064718;28;20065;-32
2021/12/07 04:27:51;;;;;;;2.67;1.50;;;;;;;;;;5064257;28;20071;-31
2021/12/07 04:30:19;;;;;;;1.95;1.30;;;;;;;;;;5064965;28;20043;-29
2021/12/07 04:32:46;;;;;;;1.60;1.20;;;;;;;;;;5064397;28;20114;-29
2021/12/07 04:35:12;;;;;;;1.52;1.02;;;;;;;;;;5064796;28;20036;-33
2021/12/07 04:37:38;;;;;;;1.88;1.40;;;;;;;;;;5064489;28;20040;-29
2021/12/07 04:40:05;;;;;;;1.45;1.10;;;;;;;;;;5064367;28;20097;-31
2021/12/07 04:42:31;;;;;;;1.27;0.98;;;;;;;;;;5064469;28;20146;-30
2021/12/07 04:45:00;;;;;;;1.73;1.20;;;;;;;;;;5065014;28;20036;-28
2021/12/07 04:47:46;;;;;;;1.70;1.38;;;;;;;;;;5047195;28;20024;-28
2021/12/07 04:58:08;;;;;;;1.60;1.10;;;;;;;;;;5064010;28;20064;-31
2021/12/07 05:00:34;;;;;;;1.30;1.10;;;;;;;;;;5078012;28;20545;-31
2021/12/07 05:03:04;;;;;;;1.70;1.23;;;;;;;;;;5072899;28;20029;-35
2021/12/07 05:05:33;;;;;;;1.67;1.17;;;;;;;;;;5064395;28;20111;-32
2021/12/07 05:08:02;;;;;;;1.33;1.02;;;;;;;;;;5064248;28;20036;-31
2021/12/07 05:10:34;;;;;;;1.50;1.05;;;;;;;;;;5063996;28;20035;-31
2021/12/07 05:39:56;;;;;;;2.22;1.30;;;;;;;;;;5072149;28;20035;-32
2021/12/07 05:42:24;;;;;;;4.10;1.38;;;;;;;;;;5084057;28;20024;-28
2021/12/07 05:44:50;;;;;;;5.85;1.30;;;;;;;;;;5083183;28;20070;-31
2021/12/07 05:47:16;;;;;;;9.60;2.42;;;;;;;;;;5082146;28;20032;-30
2021/12/07 05:49:42;;;;;;;7.97;2.10;;;;;;;;;;5064898;28;20062;-28
2021/12/07 05:52:07;;;;;;;4.88;1.50;;;;;;;;;;5082543;28;20570;-29
2021/12/07 05:54:33;;;;;;;5.53;1.40;;;;;;;;;;5082886;28;20051;-31
2021/12/07 05:56:58;;;;;;;4.10;1.30;;;;;;;;;;5081965;28;20023;-32
2021/12/07 05:59:24;;;;;;;4.78;1.20;;;;;;;;;;5082174;28;20058;-31
2021/12/07 06:01:49;;;;;;;2.95;1.05;;;;;;;;;;5082315;28;20405;-30
2021/12/07 06:04:15;;;;;;;3.15;1.60;;;;;;;;;;5082400;28;20027;-33
2021/12/07 06:06:40;;;;;;;4.22;1.55;;;;;;;;;;5082144;28;20028;-30
2021/12/07 06:09:06;;;;;;;5.88;1.67;;;;;;;;;;5082425;28;20132;-29
2021/12/07 06:11:32;;;;;;;5.10;1.58;;;;;;;;;;5082864;28;20157;-30
2021/12/07 06:13:57;;;;;;;3.88;1.55;;;;;;;;;;5082932;28;20151;-36
2021/12/07 06:16:24;;;;;;;3.63;1.23;;;;;;;;;;5083059;28;20081;-30
2021/12/07 06:18:50;;;;;;;7.00;1.35;;;;;;;;;;5082304;28;20031;-30
2021/12/07 06:21:15;;;;;;;1.67;1.13;;;;;;;;;;5082999;28;20032;-30
2021/12/07 06:23:41;;;;;;;4.80;1.38;;;;;;;;;;5082818;28;20032;-30
2021/12/07 06:26:07;;;;;;;2.20;1.00;;;;;;;;;;5082905;28;20032;-29
2021/12/07 06:28:32;;;;;;;2.45;1.45;;;;;;;;;;5094685;28;20047;-32
2021/12/07 06:30:58;;;;;;;3.72;1.23;;;;;;;;;;5103005;28;20035;-30
2021/12/07 06:33:24;;;;;;;9.10;1.50;;;;;;;;;;5103110;28;20485;-29
2021/12/07 06:35:57;;;;;;;5.95;1.55;;;;;;;;;;5102962;28;20038;-29
2021/12/07 06:38:30;;;;;;;1.67;1.10;;;;;;;;;;5102415;28;20028;-33
2021/12/07 06:40:56;;;;;;;1.80;1.10;;;;;;;;;;5089796;28;20071;-29
2021/12/07 06:43:22;;;;;;;2.30;1.30;;;;;;;;;;5062422;28;20037;-29
2021/12/07 06:45:48;;;;;;;1.80;1.20;;;;;;;;;;5062418;28;20024;-34
2021/12/07 06:48:13;;;;;;;1.38;1.00;;;;;;;;;;5044405;28;20056;-29
2021/12/07 06:50:38;;;;;;;3.63;1.65;;;;;;;;;;5063523;28;20509;-29
2021/12/07 06:53:04;;;;;;;2.40;1.48;;;;;;;;;;5062089;28;20032;-30
2021/12/07 06:55:30;;;;;;;1.98;1.15;;;;;;;;;;5075545;28;20090;-32
2021/12/07 06:57:55;;;;;;;2.42;1.15;;;;;;;;;;5069948;28;20040;-29
2021/12/07 07:00:21;;;;;;;2.13;1.00;;;;;;;;;;5065851;28;20029;-30
2021/12/07 07:02:46;;;;;;;2.08;1.15;;;;;;;;;;5076225;28;20032;-30
2021/12/07 07:05:12;;;;;;;2.10;1.20;;;;;;;;;;5061779;28;20029;-30
2021/12/07 07:07:41;;;;;;;4.70;1.10;;;;;;;;;;5073961;28;20032;-31
2021/12/07 07:10:07;;;;;;;1.50;0.88;;;;;;;;;;5082005;28;20020;-31
2021/12/07 07:12:33;;;;;;;3.78;1.40;;;;;;;;;;5079161;28;20346;-28
2021/12/07 07:14:58;;;;;;;1.60;1.13;;;;;;;;;;5102090;28;20047;-30
2021/12/07 07:17:24;;;;;;;1.48;0.90;;;;;;;;;;5084228;28;20085;-31
2021/12/07 07:19:49;;;;;;;1.98;1.10;;;;;;;;;;5061442;28;20518;-29
2021/12/07 07:22:15;;;;;;;2.60;1.25;;;;;;;;;;5062305;28;20040;-33
2021/12/07 07:24:42;;;;;;;1.67;1.05;;;;;;;;;;5059872;28;20112;-31
2021/12/07 07:27:08;;;;;;;1.77;1.10;;;;;;;;;;5061861;28;20526;-32
2021/12/07 07:29:34;;;;;;;1.85;1.00;;;;;;;;;;5062217;28;20029;-28
2021/12/07 07:31:59;;;;;;;1.45;1.10;;;;;;;;;;5061929;28;20024;-32
2021/12/07 07:34:25;;;;;;;3.65;1.10;;;;;;;;;;5061397;28;20592;-35
2021/12/07 07:36:50;;;;;;;1.42;0.73;;;;;;;;;;5061311;28;20029;-30
2021/12/07 07:39:16;;;;;;;2.45;1.00;;;;;;;;;;5061443;28;20029;-30
2021/12/07 07:41:42;;;;;;;1.55;1.00;;;;;;;;;;5061300;28;20025;-33
2021/12/07 07:44:07;;;;;;;1.45;1.02;;;;;;;;;;5060582;28;20086;-30
2021/12/07 07:46:33;;;;;;;2.03;1.15;;;;;;;;;;5064367;28;20094;-31
2021/12/07 07:49:00;;;;;;;3.72;1.23;;;;;;;;;;5063705;28;20043;-29
2021/12/07 07:51:25;;;;;;;3.88;1.17;;;;;;;;;;5067248;28;20036;-31
2021/12/07 07:53:51;;;;;;;4.95;1.50;;;;;;;;;;5065076;28;20260;-30
2021/12/07 07:56:17;;;;;;;5.55;1.20;;;;;;;;;;5064550;28;20494;-33
2021/12/07 07:58:43;;;;;;;3.05;1.40;;;;;;;;;;5066632;28;20065;-30
2021/12/07 08:01:08;;;;;;;2.83;1.20;;;;;;;;;;5069364;28;20036;-29
2021/12/07 08:03:35;;;;;;;2.08;1.15;;;;;;;;;;5071428;28;20567;-32
2021/12/07 08:06:01;;;;;;;2.08;1.42;;;;;;;;;;5065541;28;20038;-35
2021/12/07 08:08:26;;;;;;;3.47;1.23;;;;;;;;;;5069891;28;20021;-30
2021/12/07 08:10:52;;;;;;;5.25;1.55;;;;;;;;;;5064783;28;20028;-32
2021/12/07 08:13:18;;;;;;;3.88;1.58;;;;;;;;;;5058562;28;20029;-29
2021/12/07 08:15:44;;;;;;;3.30;1.45;;;;;;;;;;5066662;28;20565;-29
2021/12/07 08:18:11;;;;;;;6.05;1.58;;;;;;;;;;5046743;28;20056;-31
2021/12/07 08:20:37;;;;;;;8.23;1.80;;;;;;;;;;5045582;28;20495;-30
2021/12/07 08:23:06;;;;;;;14.18;1.90;;;;;;;;;;5063626;28;20036;-29
2021/12/07 08:25:37;;;;;;;6.88;1.65;;;;;;;;;;5063710;28;20040;-28
2021/12/07 08:28:03;;;;;;;6.68;1.35;;;;;;;;;;5072192;28;20498;-36
2021/12/07 08:30:29;;;;;;;2.33;1.30;;;;;;;;;;5084151;28;20059;-32
2021/12/07 08:32:54;;;;;;;3.72;1.38;;;;;;;;;;5083712;28;20469;-28
2021/12/07 08:35:20;;;;;;;3.65;1.50;;;;;;;;;;5083605;28;20101;-32
2021/12/07 08:37:48;;;;;;;3.88;1.20;;;;;;;;;;5083299;28;20042;-31
2021/12/07 08:40:18;;;;;;;5.20;1.30;;;;;;;;;;5082874;28;20028;-31
2021/12/07 08:42:43;;;;;;;3.35;1.38;;;;;;;;;;5083898;28;20157;-33
2021/12/07 08:45:09;;;;;;;2.60;1.00;;;;;;;;;;5084246;28;20508;-31
2021/12/07 08:47:35;;;;;;;2.78;1.20;;;;;;;;;;5083688;28;20054;-31
2021/12/07 08:50:01;;;;;;;4.50;1.15;;;;;;;;;;5084270;28;20027;-29
2021/12/07 08:52:26;;;;;;;2.58;1.20;;;;;;;;;;5083877;28;20066;-30
2021/12/07 09:00:03;;;;;;;1.73;1.17;;;;;;;;;;5083844;28;20787;-32
2021/12/07 09:02:29;;;;;;;2.10;1.17;;;;;;;;;;5063282;28;20028;-31
2021/12/07 09:04:54;;;;;;;2.53;1.20;;;;;;;;;;5064083;28;20090;-30
2021/12/07 09:07:20;;;;;;;3.20;1.38;;;;;;;;;;5064177;28;20044;-29
2021/12/07 09:09:46;;;;;;;2.35;1.10;;;;;;;;;;5063646;28;20075;-32
2021/12/07 09:12:12;;;;;;;1.30;0.93;;;;;;;;;;5046250;28;20487;-34
2021/12/07 09:14:38;;;;;;;1.52;1.05;;;;;;;;;;5063487;28;20033;-29
2021/12/07 09:17:04;;;;;;;2.88;1.05;;;;;;;;;;5064307;28;20047;-33
2021/12/07 09:19:30;;;;;;;2.30;0.98;;;;;;;;;;5063831;28;20039;-30
2021/12/07 09:21:55;;;;;;;1.70;1.08;;;;;;;;;;5063771;28;20201;-33
2021/12/07 09:24:21;;;;;;;1.73;1.10;;;;;;;;;;5063853;28;20024;-33
2021/12/07 09:26:47;;;;;;;3.38;1.20;;;;;;;;;;5063211;28;20408;-31
2021/12/07 09:29:13;;;;;;;1.48;0.95;;;;;;;;;;5063619;28;20048;-31
2021/12/07 09:31:38;;;;;;;2.97;0.90;;;;;;;;;;5063678;28;20426;-33
2021/12/07 09:34:06;;;;;;;1.90;1.00;;;;;;;;;;5063689;28;20036;-30
2021/12/07 09:36:32;;;;;;;1.80;0.98;;;;;;;;;;5063157;28;20043;-31
2021/12/07 09:38:57;;;;;;;1.63;1.00;;;;;;;;;;5063115;28;20033;-29
2021/12/07 09:41:23;;;;;;;1.50;0.98;;;;;;;;;;5063571;28;20399;-32
2021/12/07 09:43:49;;;;;;;1.58;0.85;;;;;;;;;;5063490;28;20396;-31
2021/12/07 09:46:14;;;;;;;0.70;0.65;;;;;;;;;;5063689;28;20031;-33
2021/12/07 09:48:40;;;;;;;1.15;0.90;;;;;;;;;;5063443;28;20024;-31
2021/12/07 09:51:06;;;;;;;2.25;1.13;;;;;;;;;;5076640;28;20034;-29
2021/12/07 09:53:32;;;;;;;1.15;0.80;;;;;;;;;;5083098;28;20399;-34
2021/12/07 09:55:58;;;;;;;1.42;0.98;;;;;;;;;;5083804;28;20031;-34
2021/12/07 09:58:24;;;;;;;1.63;0.90;;;;;;;;;;5083406;28;20032;-29
2021/12/07 10:00:49;;;;;;;0.93;0.70;;;;;;;;;;5082880;28;20047;-29
2021/12/07 10:03:15;;;;;;;1.42;0.98;;;;;;;;;;5083547;28;20036;-31
2021/12/07 10:05:41;;;;;;;0.98;0.77;;;;;;;;;;5083179;28;20028;-30
2021/12/07 10:08:07;;;;;;;0.88;0.60;;;;;;;;;;5083199;28;20081;-33
2021/12/07 10:10:37;;;;;;;1.15;0.73;;;;;;;;;;5083039;28;20402;-29
2021/12/07 10:13:03;;;;;;;1.10;0.70;;;;;;;;;;5064831;28;20028;-30
2021/12/07 10:15:29;;;;;;;1.33;0.73;;;;;;;;;;5083098;28;20108;-31
2021/12/07 10:18:09;;;;;;;1.15;0.70;;;;;;;;;;5083454;28;20450;-29
2021/12/07 10:20:49;;;;;;;2.63;0.88;;;;;;;;;;5064736;28;20479;-32
2021/12/07 10:23:18;;;;;;;2.20;0.60;;;;;;;;;;5082889;28;20035;-33
2021/12/07 10:25:52;;;;;;;1.98;0.90;;;;;;;;;;5083175;28;20444;-35
2021/12/07 10:28:23;;;;;;;1.98;0.88;;;;;;;;;;5082796;28;20052;-33
2021/12/07 10:30:50;;;;;;;1.38;0.80;;;;;;;;;;5082967;28;20573;-33
2021/12/07 10:33:16;;;;;;;1.33;0.60;;;;;;;;;;5082669;28;20111;-30
2021/12/07 10:35:41;;;;;;;1.08;0.80;;;;;;;;;;5048446;28;20024;-29
2021/12/07 10:38:11;;;;;;;1.48;0.73;;;;;;;;;;5082971;28;20028;-30
2021/12/07 10:40:53;;;;;;;1.02;0.68;;;;;;;;;;5083147;28;20410;-31
2021/12/07 10:43:19;;;;;;;1.50;0.90;;;;;;;;;;5064733;28;20032;-30
2021/12/07 10:45:44;;;;;;;1.08;0.80;;;;;;;;;;5047205;28;20055;-30
2021/12/07 10:48:22;;;;;;;0.90;0.70;;;;;;;;;;5064398;28;20025;-34
2021/12/07 10:50:48;;;;;;;1.40;0.77;;;;;;;;;;5082017;28;20024;-30
2021/12/07 10:53:13;;;;;;;0.73;0.57;;;;;;;;;;5082863;28;20031;-34
2021/12/07 10:55:39;;;;;;;1.48;0.80;;;;;;;;;;5082664;28;20056;-31
2021/12/07 10:58:12;;;;;;;0.77;0.52;;;;;;;;;;5082728;28;20043;-31
2021/12/07 11:00:44;;;;;;;1.10;0.70;;;;;;;;;;5082218;28;20459;-30
2021/12/07 11:03:15;;;;;;;0.80;0.70;;;;;;;;;;5082970;28;20050;-32
2021/12/07 11:05:43;;;;;;;0.90;0.60;;;;;;;;;;5063872;28;20042;-33
2021/12/07 11:08:09;;;;;;;1.17;0.60;;;;;;;;;;5082834;28;20146;-34
2021/12/07 11:10:38;;;;;;;2.10;0.90;;;;;;;;;;5082322;28;20217;-30
2021/12/07 11:13:56;;;;;;;0.98;0.70;;;;;;;;;;5082574;28;20032;-33
2021/12/07 11:15:59;;;;;;;1.52;0.90;;;;;;;;;;5064386;28;20528;-30
2021/12/07 11:18:29;;;;;;;1.35;0.88;;;;;;;;;;5082403;28;20078;-30
2021/12/07 11:20:57;;;;;;;1.00;0.70;;;;;;;;;;5084540;28;20118;-29
2021/12/07 11:23:33;;;;;;;1.90;1.00;;;;;;;;;;5086428;28;20056;-31
2021/12/07 11:31:40;;;;;;;1.77;1.20;;;;;;;;;;5086830;28;20567;-31
2021/12/07 11:34:16;;;;;;;1.80;1.38;;;;;;;;;;5086271;28;20028;-32
2021/12/07 11:36:55;;;;;;;1.55;1.00;;;;;;;;;;5085954;28;20028;-32
2021/12/07 11:39:32;;;;;;;1.67;1.10;;;;;;;;;;5086416;28;20115;-32
2021/12/07 11:42:11;;;;;;;1.08;0.82;;;;;;;;;;5067596;28;20040;-29
2021/12/07 11:44:50;;;;;;;1.58;1.10;;;;;;;;;;5086137;28;20119;-33
2021/12/07 11:47:16;;;;;;;1.13;0.88;;;;;;;;;;5085998;28;20032;-29
2021/12/07 11:49:41;;;;;;;2.78;1.60;;;;;;;;;;5086209;28;20406;-29
2021/12/07 11:52:08;;;;;;;2.20;1.42;;;;;;;;;;5085927;28;20504;-31
2021/12/07 11:54:41;;;;;;;2.13;1.30;;;;;;;;;;5085521;28;20032;-29
2021/12/07 11:57:07;;;;;;;;;;;;;;;;;;5086422;28;20036;-29
2021/12/07 11:59:32;;;;;;;2.00;1.20;;;;;;;;;;5085259;28;19912;-32
2021/12/07 12:01:58;;;;;;;1.50;1.10;;;;;;;;;;5085717;28;20049;-32
2021/12/07 12:04:24;;;;;;;1.75;1.25;;;;;;;;;;5085932;28;20452;-28
2021/12/07 12:06:51;;;;;;;2.15;1.52;;;;;;;;;;5085447;28;20036;-32
2021/12/07 12:09:17;;;;;;;2.13;1.50;;;;;;;;;;5085337;28;20032;-31
2021/12/07 12:11:45;;;;;;;1.80;1.30;;;;;;;;;;5070791;28;20038;-29
2021/12/07 12:14:36;;;;;;;1.60;1.10;;;;;;;;;;5065218;28;20037;-32
2021/12/07 12:17:28;;;;;;;1.73;1.25;;;;;;;;;;5063717;28;20693;-33
2021/12/07 12:20:19;;;;;;;2.20;1.52;;;;;;;;;;5062965;28;20056;-34
2021/12/07 12:23:22;;;;;;;1.85;1.27;;;;;;;;;;5064762;28;20041;-33
2021/12/07 12:25:55;;;;;;;1.77;1.30;;;;;;;;;;5064794;28;20048;-30
2021/12/07 12:28:25;;;;;;;2.58;1.70;;;;;;;;;;5064958;28;20052;-31
2021/12/07 12:30:51;;;;;;;1.67;1.30;;;;;;;;;;5064738;28;20057;-28
2021/12/07 12:33:16;;;;;;;2.33;1.35;;;;;;;;;;5064801;28;20113;-31
2021/12/07 12:35:52;;;;;;;2.53;1.40;;;;;;;;;;5064790;28;20051;-29
2021/12/07 12:38:24;;;;;;;1.38;1.10;;;;;;;;;;5064835;28;20105;-30
2021/12/07 12:41:16;;;;;;;1.52;1.15;;;;;;;;;;5065018;28;20048;-29
2021/12/07 12:43:44;;;;;;;1.73;1.17;;;;;;;;;;5062432;28;20032;-33
2021/12/07 12:46:16;;;;;;;1.58;1.05;;;;;;;;;;5064726;28;20108;-34
2021/12/07 12:48:46;;;;;;;1.63;1.05;;;;;;;;;;5064526;28;20117;-32
2021/12/07 12:51:12;;;;;;;1.60;0.90;;;;;;;;;;5064942;28;20052;-29
2021/12/07 12:53:37;;;;;;;1.80;1.23;;;;;;;;;;5063913;28;20068;-30
2021/12/07 12:56:16;;;;;;;1.17;1.00;;;;;;;;;;5064341;28;20036;-32
2021/12/07 12:58:44;;;;;;;1.50;1.10;;;;;;;;;;5064090;28;20032;-30
2021/12/07 13:01:23;;;;;;;1.33;1.10;;;;;;;;;;5064396;28;20414;-29
2021/12/07 13:04:18;;;;;;;2.10;0.98;;;;;;;;;;5064331;28;20104;-31
2021/12/07 13:06:50;;;;;;;1.10;0.98;;;;;;;;;;5063301;28;20041;-28
2021/12/07 13:09:18;;;;;;;1.60;1.08;;;;;;;;;;5064045;28;20066;-31
2021/12/07 13:12:07;;;;;;;1.02;0.90;;;;;;;;;;5063977;28;20036;-28
2021/12/07 13:14:37;;;;;;;1.15;0.98;;;;;;;;;;5063795;28;20620;-32
2021/12/07 13:17:13;;;;;;;1.58;1.08;;;;;;;;;;5064271;28;20037;-29
2021/12/07 13:20:08;;;;;;;1.38;0.90;;;;;;;;;;5063692;28;20029;-35
2021/12/07 13:22:35;;;;;;;1.33;0.90;;;;;;;;;;5063686;28;20047;-32
2021/12/07 13:25:08;;;;;;;1.42;1.17;;;;;;;;;;5063860;28;20471;-31
2021/12/07 13:27:34;;;;;;;1.20;0.80;;;;;;;;;;5063991;28;20056;-31
2021/12/07 13:29:59;;;;;;;1.35;1.08;;;;;;;;;;5062174;28;20492;-28
2021/12/07 13:32:25;;;;;;;1.10;0.90;;;;;;;;;;5064123;28;20039;-30
2021/12/07 13:35:03;;;;;;;1.25;0.82;;;;;;;;;;5064060;28;20040;-29
2021/12/07 13:37:44;;;;;;;1.77;1.05;;;;;;;;;;5062976;28;20032;-34
2021/12/07 13:40:20;;;;;;;1.65;0.90;;;;;;;;;;5063549;28;20140;-29
2021/12/07 13:42:48;;;;;;;1.08;0.90;;;;;;;;;;5063050;28;20033;-31
2021/12/07 13:45:17;;;;;;;1.23;0.60;;;;;;;;;;5063904;28;20166;-32
2021/12/07 13:47:44;;;;;;;1.40;0.90;;;;;;;;;;5063425;28;20170;-31
2021/12/07 13:50:11;;;;;;;1.00;0.85;;;;;;;;;;5063267;28;20024;-30
2021/12/07 13:52:40;;;;;;;0.98;0.80;;;;;;;;;;5061762;28;20041;-29
2021/12/07 13:55:16;;;;;;;0.93;0.82;;;;;;;;;;5062543;28;20048;-30
2021/12/07 13:57:43;;;;;;;1.00;0.70;;;;;;;;;;5063111;28;20032;-28
2021/12/07 14:00:29;;;;;;;1.15;0.82;;;;;;;;;;5063489;28;20032;-30
2021/12/07 14:03:02;;;;;;;1.25;0.90;;;;;;;;;;5063023;28;20024;-28
2021/12/07 14:05:36;;;;;;;1.67;1.00;;;;;;;;;;5063441;28;20031;-32
2021/12/07 14:08:08;;;;;;;1.25;0.82;;;;;;;;;;5063241;28;20462;-35
2021/12/07 14:10:40;;;;;;;1.10;1.00;;;;;;;;;;5062564;28;20037;-29
2021/12/07 14:13:06;;;;;;;1.52;0.98;;;;;;;;;;5063094;28;20028;-31
2021/12/07 14:15:33;;;;;;;1.27;0.80;;;;;;;;;;5063099;28;20139;-31
2021/12/07 14:18:23;;;;;;;0.98;0.80;;;;;;;;;;5063005;28;20028;-29
2021/12/07 14:20:52;;;;;;;1.10;0.80;;;;;;;;;;5062772;28;20109;-32
2021/12/07 14:23:32;;;;;;;2.10;1.20;;;;;;;;;;5062854;28;20032;-33
2021/12/07 14:26:07;;;;;;;1.30;0.85;;;;;;;;;;5062690;28;20028;-30
2021/12/07 14:28:42;;;;;;;1.85;1.17;;;;;;;;;;5062527;28;20052;-29
2021/12/07 14:31:14;;;;;;;1.15;1.00;;;;;;;;;;5064169;28;20537;-30
2021/12/07 14:33:45;;;;;;;1.58;1.08;;;;;;;;;;5082607;28;20048;-30
2021/12/07 14:36:11;;;;;;;1.58;1.20;;;;;;;;;;5082949;28;20035;-31
2021/12/07 14:38:37;;;;;;;1.30;0.90;;;;;;;;;;5082408;28;20032;-29
2021/12/07 14:41:04;;;;;;;1.63;0.90;;;;;;;;;;5082518;28;20036;-29
2021/12/07 14:43:30;;;;;;;1.90;1.15;;;;;;;;;;5082761;28;20948;-31
2021/12/07 14:46:00;;;;;;;2.00;1.27;;;;;;;;;;5064316;28;20032;-29
2021/12/07 14:48:25;;;;;;;1.25;0.98;;;;;;;;;;5082171;28;20817;-31
2021/12/07 14:50:51;;;;;;;1.73;1.10;;;;;;;;;;5082933;28;20028;-29
2021/12/07 14:53:31;;;;;;;1.38;1.10;;;;;;;;;;5082654;28;20520;-31
2021/12/07 14:55:56;;;;;;;1.33;0.90;;;;;;;;;;5085731;28;20045;-30
2021/12/07 14:58:35;;;;;;;1.90;1.17;;;;;;;;;;5086842;28;20094;-28
2021/12/07 15:01:01;;;;;;;1.00;0.90;;;;;;;;;;5068435;28;20146;-29
2021/12/07 15:03:59;;;;;;;1.50;1.00;;;;;;;;;;5086509;28;20046;-31
2021/12/07 15:06:28;;;;;;;1.38;1.17;;;;;;;;;;5041665;28;20040;-33
2021/12/07 15:08:53;;;;;;;1.65;0.98;;;;;;;;;;5087012;28;20106;-28
2021/12/07 15:11:19;;;;;;;1.27;1.00;;;;;;;;;;5086876;28;20154;-32
2021/12/07 15:13:45;;;;;;;1.30;1.05;;;;;;;;;;5086441;28;20020;-31
2021/12/07 15:16:11;;;;;;;1.23;0.98;;;;;;;;;;5086691;28;20036;-28
2021/12/07 15:18:40;;;;;;;1.52;1.25;;;;;;;;;;5086369;28;20402;-28
2021/12/07 15:21:27;;;;;;;1.45;1.00;;;;;;;;;;5086136;28;20031;-30
2021/12/07 15:23:54;;;;;;;1.42;0.80;;;;;;;;;;5086049;28;20050;-31
2021/12/07 15:26:24;;;;;;;1.08;0.90;;;;;;;;;;5086262;28;20039;-34
2021/12/07 15:28:53;;;;;;;1.40;1.10;;;;;;;;;;5085276;28;20067;-29
2021/12/07 15:31:19;;;;;;;1.55;1.10;;;;;;;;;;5086247;28;20497;-30
2021/12/07 15:33:45;;;;;;;1.50;1.00;;;;;;;;;;5086218;28;20181;-31
2021/12/07 15:36:21;;;;;;;1.40;1.10;;;;;;;;;;5086484;28;20024;-32
2021/12/07 15:38:48;;;;;;;1.48;1.08;;;;;;;;;;5086085;28;20028;-31
2021/12/07 15:41:13;;;;;;;1.25;0.95;;;;;;;;;;5086008;28;20039;-32
2021/12/07 15:43:41;;;;;;;1.55;1.00;;;;;;;;;;5086269;28;20028;-28
2021/12/07 15:46:06;;;;;;;1.20;0.90;;;;;;;;;;5086252;28;20028;-33
2021/12/07 15:48:33;;;;;;;1.52;1.00;;;;;;;;;;5086050;28;20716;-30
2021/12/07 15:51:00;;;;;;;1.10;0.80;;;;;;;;;;5073749;28;20040;-31
2021/12/07 15:53:27;;;;;;;1.65;1.10;;;;;;;;;;5065607;28;20082;-29
2021/12/07 15:55:52;;;;;;;1.75;0.95;;;;;;;;;;5065065;28;20032;-30
2021/12/07 15:58:20;;;;;;;1.38;1.05;;;;;;;;;;5065509;28;20024;-29
2021/12/07 16:00:46;;;;;;;1.55;1.10;;;;;;;;;;5065397;28;20028;-30
2021/12/07 16:03:44;;;;;;;1.27;0.95;;;;;;;;;;5086337;28;20059;-31
2021/12/07 16:06:17;;;;;;;5.70;1.50;;;;;;;;;;5049317;28;20048;-29
2021/12/07 16:08:43;;;;;;;4.40;1.30;;;;;;;;;;5077041;28;20115;-33
2021/12/07 16:11:13;;;;;;;3.10;1.40;;;;;;;;;;5082403;28;20138;-33
2021/12/07 16:13:41;;;;;;;5.00;1.05;;;;;;;;;;5085142;28;20298;-33
2021/12/07 16:16:08;;;;;;;2.92;1.15;;;;;;;;;;5076365;28;20112;-29
2021/12/07 16:18:36;;;;;;;4.53;1.10;;;;;;;;;;5085096;28;20035;-28
2021/12/07 16:21:02;;;;;;;4.05;1.45;;;;;;;;;;5085778;28;20043;-34
2021/12/07 16:23:28;;;;;;;6.03;1.20;;;;;;;;;;5084860;28;20027;-29
2021/12/07 16:25:53;;;;;;;2.60;1.17;;;;;;;;;;5084111;28;20050;-34
2021/12/07 16:28:19;;;;;;;6.05;0.88;;;;;;;;;;5085061;28;20122;-33
2021/12/07 16:30:44;;;;;;;4.95;1.20;;;;;;;;;;5083597;28;20034;-29
2021/12/07 16:33:11;;;;;;;2.80;1.08;;;;;;;;;;5084390;28;20036;-32
2021/12/07 16:35:37;;;;;;;3.45;1.40;;;;;;;;;;5085408;28;20024;-32
2021/12/07 16:38:03;;;;;;;1.88;1.17;;;;;;;;;;5086579;28;20051;-30
2021/12/07 16:40:28;;;;;;;4.20;1.02;;;;;;;;;;5079530;28;20479;-31